sensor_id;sensor_type;location;lat;lon;timestamp;temperature;humidity
18317;DHT22;9284;52.298;21.164;2023-04-24T00:01:23;10.40;99.90
18317;DHT22;9284;52.298;21.164;2023-04-24T00:03:51;10.30;99.90
18317;DHT22;9284;52.298;21.164;2023-04-24T00:06:20;10.20;99.90
18317;DHT22;9284;52.298;21.164;2023-04-24T00:08:50;10.20;99.90
18317;DHT22;9284;52.298;21.164;2023-04-24T00:11:18;10.10;99.90
18317;DHT22;9284;52.298;21.164;2023-04-24T00:13:47;10.10;99.90
18317;DHT22;9284;52.298;21.164;2023-04-24T00:16:15;10.00;99.90
18317;DHT22;9284;52.298;21.164;2023-04-24T00:18:45;9.90;99.90
18317;DHT22;9284;52.298;21.164;2023-04-24T00:21:14;9.90;99.90
18317;DHT22;9284;52.298;21.164;2023-04-24T00:23:44;9.90;99.90
18317;DHT22;9284;52.298;21.164;2023-04-24T00:26:12;9.80;99.90
18317;DHT22;9284;52.298;21.164;2023-04-24T00:28:41;9.70;99.90
18317;DHT22;9284;52.298;21.164;2023-04-24T00:31:12;9.70;99.90
18317;DHT22;9284;52.298;21.164;2023-04-24T00:33:40;9.70;99.90
18317;DHT22;9284;52.298;21.164;2023-04-24T00:36:10;9.60;99.90
18317;DHT22;9284;52.298;21.164;2023-04-24T00:38:38;9.80;99.90
18317;DHT22;9284;52.298;21.164;2023-04-24T00:41:07;9.80;1.00
18317;DHT22;9284;52.298;21.164;2023-04-24T00:43:35;9.70;1.00
18317;DHT22;9284;52.298;21.164;2023-04-24T00:46:03;9.60;1.00
18317;DHT22;9284;52.298;21.164;2023-04-24T00:48:32;9.60;1.00
18317;DHT22;9284;52.298;21.164;2023-04-24T00:51:01;9.50;1.00
18317;DHT22;9284;52.298;21.164;2023-04-24T00:53:31;9.40;1.00
18317;DHT22;9284;52.298;21.164;2023-04-24T00:56:00;9.40;1.00
18317;DHT22;9284;52.298;21.164;2023-04-24T00:58:28;9.40;1.00
18317;DHT22;9284;52.298;21.164;2023-04-24T01:00:57;9.30;9.60
18317;DHT22;9284;52.298;21.164;2023-04-24T01:03:29;9.30;74.10
18317;DHT22;9284;52.298;21.164;2023-04-24T01:05:59;9.20;99.90
18317;DHT22;9284;52.298;21.164;2023-04-24T01:08:28;9.20;99.90
18317;DHT22;9284;52.298;21.164;2023-04-24T01:10:58;9.20;99.90
18317;DHT22;9284;52.298;21.164;2023-04-24T01:13:27;9.10;99.90
18317;DHT22;9284;52.298;21.164;2023-04-24T01:15:55;9.10;99.90
18317;DHT22;9284;52.298;21.164;2023-04-24T01:18:23;9.00;99.90
18317;DHT22;9284;52.298;21.164;2023-04-24T01:20:53;9.00;99.90
18317;DHT22;9284;52.298;21.164;2023-04-24T01:23:25;8.90;99.90
18317;DHT22;9284;52.298;21.164;2023-04-24T01:25:54;9.00;99.90
18317;DHT22;9284;52.298;21.164;2023-04-24T01:28:23;9.00;99.90
18317;DHT22;9284;52.298;21.164;2023-04-24T01:30:51;9.00;99.90
18317;DHT22;9284;52.298;21.164;2023-04-24T01:33:22;9.00;99.90
18317;DHT22;9284;52.298;21.164;2023-04-24T01:35:51;9.00;99.90
18317;DHT22;9284;52.298;21.164;2023-04-24T01:38:19;9.10;1.00
18317;DHT22;9284;52.298;21.164;2023-04-24T01:40:49;9.10;1.00
18317;DHT22;9284;52.298;21.164;2023-04-24T01:43:20;9.00;99.90
18317;DHT22;9284;52.298;21.164;2023-04-24T01:45:48;9.10;99.90
18317;DHT22;9284;52.298;21.164;2023-04-24T01:48:16;9.10;99.90
18317;DHT22;9284;52.298;21.164;2023-04-24T01:50:45;9.10;99.90
18317;DHT22;9284;52.298;21.164;2023-04-24T01:53:14;9.10;99.90
18317;DHT22;9284;52.298;21.164;2023-04-24T01:55:42;9.00;99.90
18317;DHT22;9284;52.298;21.164;2023-04-24T01:58:13;9.10;99.90
18317;DHT22;9284;52.298;21.164;2023-04-24T02:00:42;9.10;99.90
18317;DHT22;9284;52.298;21.164;2023-04-24T02:03:10;9.00;99.90
18317;DHT22;9284;52.298;21.164;2023-04-24T02:05:38;9.00;99.90
18317;DHT22;9284;52.298;21.164;2023-04-24T02:08:07;8.90;99.90
18317;DHT22;9284;52.298;21.164;2023-04-24T02:10:37;8.90;99.90
18317;DHT22;9284;52.298;21.164;2023-04-24T02:13:05;8.80;99.90
18317;DHT22;9284;52.298;21.164;2023-04-24T02:15:35;8.80;99.90
18317;DHT22;9284;52.298;21.164;2023-04-24T02:18:03;8.70;99.90
18317;DHT22;9284;52.298;21.164;2023-04-24T02:20:33;8.70;99.90
18317;DHT22;9284;52.298;21.164;2023-04-24T02:23:02;8.60;99.90
18317;DHT22;9284;52.298;21.164;2023-04-24T02:25:30;8.60;99.90
18317;DHT22;9284;52.298;21.164;2023-04-24T02:27:58;8.50;99.90
18317;DHT22;9284;52.298;21.164;2023-04-24T02:30:26;8.50;99.90
18317;DHT22;9284;52.298;21.164;2023-04-24T02:32:56;8.50;99.90
18317;DHT22;9284;52.298;21.164;2023-04-24T02:35:24;8.40;99.90
18317;DHT22;9284;52.298;21.164;2023-04-24T02:37:53;8.40;99.90
18317;DHT22;9284;52.298;21.164;2023-04-24T02:40:21;8.40;99.90
18317;DHT22;9284;52.298;21.164;2023-04-24T02:42:49;8.40;99.90
18317;DHT22;9284;52.298;21.164;2023-04-24T02:45:17;8.40;99.90
18317;DHT22;9284;52.298;21.164;2023-04-24T02:47:46;8.40;99.90
18317;DHT22;9284;52.298;21.164;2023-04-24T02:50:15;8.40;91.00
18317;DHT22;9284;52.298;21.164;2023-04-24T02:52:44;8.40;81.80
18317;DHT22;9284;52.298;21.164;2023-04-24T02:55:13;8.50;51.60
18317;DHT22;9284;52.298;21.164;2023-04-24T02:57:41;8.50;22.60
18317;DHT22;9284;52.298;21.164;2023-04-24T03:00:10;8.50;9.10
18317;DHT22;9284;52.298;21.164;2023-04-24T03:02:38;8.50;18.30
18317;DHT22;9284;52.298;21.164;2023-04-24T03:05:07;8.50;34.00
18317;DHT22;9284;52.298;21.164;2023-04-24T03:07:40;8.50;1.00
18317;DHT22;9284;52.298;21.164;2023-04-24T03:10:08;8.40;1.00
18317;DHT22;9284;52.298;21.164;2023-04-24T03:12:37;8.30;1.00
18317;DHT22;9284;52.298;21.164;2023-04-24T03:15:06;8.30;1.00
18317;DHT22;9284;52.298;21.164;2023-04-24T03:17:36;8.30;8.60
18317;DHT22;9284;52.298;21.164;2023-04-24T03:20:06;8.30;89.40
18317;DHT22;9284;52.298;21.164;2023-04-24T03:22:35;8.20;99.30
18317;DHT22;9284;52.298;21.164;2023-04-24T03:25:09;8.20;99.90
18317;DHT22;9284;52.298;21.164;2023-04-24T03:27:37;8.10;99.90
18317;DHT22;9284;52.298;21.164;2023-04-24T03:30:24;8.00;99.90
18317;DHT22;9284;52.298;21.164;2023-04-24T03:32:58;8.00;99.90
18317;DHT22;9284;52.298;21.164;2023-04-24T03:35:29;8.00;99.90
18317;DHT22;9284;52.298;21.164;2023-04-24T03:38:01;8.10;99.90
18317;DHT22;9284;52.298;21.164;2023-04-24T03:40:50;8.00;1.00
18317;DHT22;9284;52.298;21.164;2023-04-24T03:43:33;7.90;1.00
18317;DHT22;9284;52.298;21.164;2023-04-24T03:46:04;8.00;1.00
18317;DHT22;9284;52.298;21.164;2023-04-24T03:48:36;7.90;1.00
18317;DHT22;9284;52.298;21.164;2023-04-24T03:51:06;7.90;1.00
18317;DHT22;9284;52.298;21.164;2023-04-24T03:53:36;7.90;1.00
18317;DHT22;9284;52.298;21.164;2023-04-24T03:56:06;7.90;1.00
18317;DHT22;9284;52.298;21.164;2023-04-24T03:58:34;7.90;1.00
18317;DHT22;9284;52.298;21.164;2023-04-24T04:01:03;7.90;1.00
18317;DHT22;9284;52.298;21.164;2023-04-24T04:04:04;7.90;1.00
18317;DHT22;9284;52.298;21.164;2023-04-24T04:06:35;8.00;1.00
18317;DHT22;9284;52.298;21.164;2023-04-24T04:09:04;8.00;1.00
18317;DHT22;9284;52.298;21.164;2023-04-24T04:11:36;8.10;1.00
18317;DHT22;9284;52.298;21.164;2023-04-24T04:14:05;8.00;1.00
18317;DHT22;9284;52.298;21.164;2023-04-24T04:16:35;8.00;1.00
18317;DHT22;9284;52.298;21.164;2023-04-24T04:19:06;8.10;1.00
18317;DHT22;9284;52.298;21.164;2023-04-24T04:21:36;8.20;1.00
18317;DHT22;9284;52.298;21.164;2023-04-24T04:24:24;8.30;1.00
18317;DHT22;9284;52.298;21.164;2023-04-24T04:26:55;8.30;1.00
18317;DHT22;9284;52.298;21.164;2023-04-24T04:29:31;8.60;99.90
18317;DHT22;9284;52.298;21.164;2023-04-24T04:32:01;8.90;99.90
18317;DHT22;9284;52.298;21.164;2023-04-24T04:34:30;9.10;1.00
18317;DHT22;9284;52.298;21.164;2023-04-24T04:37:00;9.30;1.00
18317;DHT22;9284;52.298;21.164;2023-04-24T04:39:49;9.50;1.00
18317;DHT22;9284;52.298;21.164;2023-04-24T04:42:22;9.70;1.00
18317;DHT22;9284;52.298;21.164;2023-04-24T04:44:51;9.80;1.00
18317;DHT22;9284;52.298;21.164;2023-04-24T04:47:25;9.80;1.00
18317;DHT22;9284;52.298;21.164;2023-04-24T04:49:56;9.90;1.00
18317;DHT22;9284;52.298;21.164;2023-04-24T04:52:27;10.00;1.00
18317;DHT22;9284;52.298;21.164;2023-04-24T04:55:04;10.00;1.00
18317;DHT22;9284;52.298;21.164;2023-04-24T04:57:57;10.10;1.00
18317;DHT22;9284;52.298;21.164;2023-04-24T05:00:27;10.20;1.00
18317;DHT22;9284;52.298;21.164;2023-04-24T05:03:08;10.40;1.00
18317;DHT22;9284;52.298;21.164;2023-04-24T05:05:52;10.50;1.00
18317;DHT22;9284;52.298;21.164;2023-04-24T05:08:21;10.60;1.00
18317;DHT22;9284;52.298;21.164;2023-04-24T05:10:54;10.80;1.00
18317;DHT22;9284;52.298;21.164;2023-04-24T05:13:26;10.90;1.00
18317;DHT22;9284;52.298;21.164;2023-04-24T05:16:17;11.00;1.00
18317;DHT22;9284;52.298;21.164;2023-04-24T05:18:47;11.20;1.00
18317;DHT22;9284;52.298;21.164;2023-04-24T05:21:19;11.30;1.00
18317;DHT22;9284;52.298;21.164;2023-04-24T05:23:50;11.40;1.00
18317;DHT22;9284;52.298;21.164;2023-04-24T05:26:32;11.60;1.00
18317;DHT22;9284;52.298;21.164;2023-04-24T05:29:05;11.70;1.00
18317;DHT22;9284;52.298;21.164;2023-04-24T05:31:33;11.70;1.00
18317;DHT22;9284;52.298;21.164;2023-04-24T05:34:04;11.90;1.00
18317;DHT22;9284;52.298;21.164;2023-04-24T05:36:34;11.90;1.00
18317;DHT22;9284;52.298;21.164;2023-04-24T05:39:02;12.10;1.00
18317;DHT22;9284;52.298;21.164;2023-04-24T05:41:34;12.30;1.00
18317;DHT22;9284;52.298;21.164;2023-04-24T05:44:02;12.50;1.00
18317;DHT22;9284;52.298;21.164;2023-04-24T05:46:32;12.70;1.00
18317;DHT22;9284;52.298;21.164;2023-04-24T05:49:00;12.80;99.90
18317;DHT22;9284;52.298;21.164;2023-04-24T05:51:31;13.40;99.90
18317;DHT22;9284;52.298;21.164;2023-04-24T05:54:00;14.10;99.90
18317;DHT22;9284;52.298;21.164;2023-04-24T05:56:28;15.00;1.00
18317;DHT22;9284;52.298;21.164;2023-04-24T05:58:59;15.70;1.00
18317;DHT22;9284;52.298;21.164;2023-04-24T06:01:27;16.20;99.90
18317;DHT22;9284;52.298;21.164;2023-04-24T06:04:06;16.70;99.90
18317;DHT22;9284;52.298;21.164;2023-04-24T06:06:35;17.10;99.90
18317;DHT22;9284;52.298;21.164;2023-04-24T06:09:04;17.50;99.90
18317;DHT22;9284;52.298;21.164;2023-04-24T06:11:33;18.30;99.90
18317;DHT22;9284;52.298;21.164;2023-04-24T06:14:02;18.10;99.90
18317;DHT22;9284;52.298;21.164;2023-04-24T06:16:37;18.30;99.90
18317;DHT22;9284;52.298;21.164;2023-04-24T06:19:19;18.70;99.90
18317;DHT22;9284;52.298;21.164;2023-04-24T06:21:47;19.00;99.90
18317;DHT22;9284;52.298;21.164;2023-04-24T06:24:15;19.50;99.90
18317;DHT22;9284;52.298;21.164;2023-04-24T06:26:44;19.60;99.90
18317;DHT22;9284;52.298;21.164;2023-04-24T06:29:12;19.60;99.90
18317;DHT22;9284;52.298;21.164;2023-04-24T06:31:40;20.30;99.90
18317;DHT22;9284;52.298;21.164;2023-04-24T06:34:09;21.20;99.90
18317;DHT22;9284;52.298;21.164;2023-04-24T06:36:39;21.50;99.90
18317;DHT22;9284;52.298;21.164;2023-04-24T06:39:07;21.80;99.90
18317;DHT22;9284;52.298;21.164;2023-04-24T06:41:37;22.20;99.90
18317;DHT22;9284;52.298;21.164;2023-04-24T06:44:09;22.50;99.90
18317;DHT22;9284;52.298;21.164;2023-04-24T06:46:37;23.00;99.90
18317;DHT22;9284;52.298;21.164;2023-04-24T06:49:07;22.90;99.90
18317;DHT22;9284;52.298;21.164;2023-04-24T06:51:36;23.20;99.90
18317;DHT22;9284;52.298;21.164;2023-04-24T06:54:05;22.80;99.90
18317;DHT22;9284;52.298;21.164;2023-04-24T06:56:34;23.50;99.90
18317;DHT22;9284;52.298;21.164;2023-04-24T06:59:02;24.00;99.90
18317;DHT22;9284;52.298;21.164;2023-04-24T07:01:30;23.20;99.90
18317;DHT22;9284;52.298;21.164;2023-04-24T07:03:58;23.50;99.90
18317;DHT22;9284;52.298;21.164;2023-04-24T07:06:27;23.60;99.90
18317;DHT22;9284;52.298;21.164;2023-04-24T07:08:57;24.00;99.90
18317;DHT22;9284;52.298;21.164;2023-04-24T07:11:28;23.70;99.90
18317;DHT22;9284;52.298;21.164;2023-04-24T07:13:56;23.20;99.90
18317;DHT22;9284;52.298;21.164;2023-04-24T07:16:24;23.40;99.90
18317;DHT22;9284;52.298;21.164;2023-04-24T07:18:53;23.70;99.90
18317;DHT22;9284;52.298;21.164;2023-04-24T07:21:21;24.20;99.90
18317;DHT22;9284;52.298;21.164;2023-04-24T07:23:49;23.90;99.90
18317;DHT22;9284;52.298;21.164;2023-04-24T07:26:18;24.70;99.90
18317;DHT22;9284;52.298;21.164;2023-04-24T07:28:47;24.70;99.90
18317;DHT22;9284;52.298;21.164;2023-04-24T07:31:16;25.20;99.90
18317;DHT22;9284;52.298;21.164;2023-04-24T07:33:44;25.90;99.90
18317;DHT22;9284;52.298;21.164;2023-04-24T07:36:12;25.50;99.90
18317;DHT22;9284;52.298;21.164;2023-04-24T07:38:43;25.60;99.90
18317;DHT22;9284;52.298;21.164;2023-04-24T07:41:12;25.30;99.90
18317;DHT22;9284;52.298;21.164;2023-04-24T07:43:40;26.00;99.90
18317;DHT22;9284;52.298;21.164;2023-04-24T07:46:10;25.60;99.90
18317;DHT22;9284;52.298;21.164;2023-04-24T07:48:38;25.40;99.90
18317;DHT22;9284;52.298;21.164;2023-04-24T07:51:06;25.50;99.90
18317;DHT22;9284;52.298;21.164;2023-04-24T07:53:37;25.30;99.90
18317;DHT22;9284;52.298;21.164;2023-04-24T07:56:05;25.20;99.90
18317;DHT22;9284;52.298;21.164;2023-04-24T07:58:33;25.70;99.90
18317;DHT22;9284;52.298;21.164;2023-04-24T08:01:02;25.60;99.90
18317;DHT22;9284;52.298;21.164;2023-04-24T08:03:31;26.10;99.90
18317;DHT22;9284;52.298;21.164;2023-04-24T08:06:00;26.50;99.90
18317;DHT22;9284;52.298;21.164;2023-04-24T08:08:28;27.20;99.90
18317;DHT22;9284;52.298;21.164;2023-04-24T08:10:57;26.80;99.90
18317;DHT22;9284;52.298;21.164;2023-04-24T08:13:25;26.90;99.90
18317;DHT22;9284;52.298;21.164;2023-04-24T08:15:53;27.30;99.90
18317;DHT22;9284;52.298;21.164;2023-04-24T08:18:22;27.00;99.90
18317;DHT22;9284;52.298;21.164;2023-04-24T08:20:52;27.20;99.90
18317;DHT22;9284;52.298;21.164;2023-04-24T08:23:20;27.30;99.90
18317;DHT22;9284;52.298;21.164;2023-04-24T08:25:48;26.70;99.90
18317;DHT22;9284;52.298;21.164;2023-04-24T08:28:17;26.20;99.90
18317;DHT22;9284;52.298;21.164;2023-04-24T08:30:47;26.40;99.90
18317;DHT22;9284;52.298;21.164;2023-04-24T08:33:15;25.60;99.90
18317;DHT22;9284;52.298;21.164;2023-04-24T08:35:43;25.70;99.90
18317;DHT22;9284;52.298;21.164;2023-04-24T08:38:13;26.00;99.90
18317;DHT22;9284;52.298;21.164;2023-04-24T08:40:41;26.00;99.90
18317;DHT22;9284;52.298;21.164;2023-04-24T08:43:13;26.40;99.90
18317;DHT22;9284;52.298;21.164;2023-04-24T08:45:42;26.80;99.90
18317;DHT22;9284;52.298;21.164;2023-04-24T08:48:11;27.10;99.90
18317;DHT22;9284;52.298;21.164;2023-04-24T08:50:57;26.80;99.90
18317;DHT22;9284;52.298;21.164;2023-04-24T08:53:27;26.40;99.90
18317;DHT22;9284;52.298;21.164;2023-04-24T08:55:56;26.10;99.90
18317;DHT22;9284;52.298;21.164;2023-04-24T08:58:25;25.60;99.90
18317;DHT22;9284;52.298;21.164;2023-04-24T09:00:54;25.20;99.90
18317;DHT22;9284;52.298;21.164;2023-04-24T09:03:23;24.40;99.90
18317;DHT22;9284;52.298;21.164;2023-04-24T09:05:52;24.00;99.90
18317;DHT22;9284;52.298;21.164;2023-04-24T09:08:24;23.20;99.90
18317;DHT22;9284;52.298;21.164;2023-04-24T09:10:54;22.80;99.90
18317;DHT22;9284;52.298;21.164;2023-04-24T09:13:25;23.10;99.90
18317;DHT22;9284;52.298;21.164;2023-04-24T09:15:53;23.20;99.90
18317;DHT22;9284;52.298;21.164;2023-04-24T09:18:24;24.30;99.90
18317;DHT22;9284;52.298;21.164;2023-04-24T09:21:02;25.00;99.90
18317;DHT22;9284;52.298;21.164;2023-04-24T09:23:31;25.80;99.90
18317;DHT22;9284;52.298;21.164;2023-04-24T09:26:03;25.80;99.90
18317;DHT22;9284;52.298;21.164;2023-04-24T09:28:35;25.50;99.90
18317;DHT22;9284;52.298;21.164;2023-04-24T09:31:05;25.30;99.90
18317;DHT22;9284;52.298;21.164;2023-04-24T09:33:34;24.70;99.90
18317;DHT22;9284;52.298;21.164;2023-04-24T09:36:03;24.50;99.90
18317;DHT22;9284;52.298;21.164;2023-04-24T09:38:34;24.70;99.90
18317;DHT22;9284;52.298;21.164;2023-04-24T09:41:05;24.50;99.90
18317;DHT22;9284;52.298;21.164;2023-04-24T09:43:35;24.20;99.90
18317;DHT22;9284;52.298;21.164;2023-04-24T09:46:07;24.00;99.90
18317;DHT22;9284;52.298;21.164;2023-04-24T09:48:37;23.80;99.90
18317;DHT22;9284;52.298;21.164;2023-04-24T09:51:06;24.30;99.90
18317;DHT22;9284;52.298;21.164;2023-04-24T09:53:37;24.60;99.90
18317;DHT22;9284;52.298;21.164;2023-04-24T09:56:12;24.90;99.90
18317;DHT22;9284;52.298;21.164;2023-04-24T09:58:41;25.30;99.90
18317;DHT22;9284;52.298;21.164;2023-04-24T10:01:09;25.50;99.90
18317;DHT22;9284;52.298;21.164;2023-04-24T10:03:37;25.60;99.90
18317;DHT22;9284;52.298;21.164;2023-04-24T10:06:06;25.60;99.90
18317;DHT22;9284;52.298;21.164;2023-04-24T10:08:36;25.50;99.90
18317;DHT22;9284;52.298;21.164;2023-04-24T10:11:05;25.00;99.20
18317;DHT22;9284;52.298;21.164;2023-04-24T10:13:36;24.60;99.50
18317;DHT22;9284;52.298;21.164;2023-04-24T10:16:05;25.00;99.90
18317;DHT22;9284;52.298;21.164;2023-04-24T10:18:34;24.90;99.90
18317;DHT22;9284;52.298;21.164;2023-04-24T10:21:03;24.80;99.90
18317;DHT22;9284;52.298;21.164;2023-04-24T10:23:32;25.00;99.90
18317;DHT22;9284;52.298;21.164;2023-04-24T10:26:00;24.90;99.90
18317;DHT22;9284;52.298;21.164;2023-04-24T10:28:30;24.80;99.90
18317;DHT22;9284;52.298;21.164;2023-04-24T10:31:01;25.00;99.90
18317;DHT22;9284;52.298;21.164;2023-04-24T10:33:30;25.10;99.90
18317;DHT22;9284;52.298;21.164;2023-04-24T10:35:59;25.30;99.90
18317;DHT22;9284;52.298;21.164;2023-04-24T10:38:29;25.30;99.90
18317;DHT22;9284;52.298;21.164;2023-04-24T10:41:06;25.60;99.90
18317;DHT22;9284;52.298;21.164;2023-04-24T10:43:35;25.90;99.90
18317;DHT22;9284;52.298;21.164;2023-04-24T10:46:05;26.40;99.90
18317;DHT22;9284;52.298;21.164;2023-04-24T10:48:34;26.30;99.90
18317;DHT22;9284;52.298;21.164;2023-04-24T10:51:02;25.90;98.40
18317;DHT22;9284;52.298;21.164;2023-04-24T10:53:31;26.00;99.90
18317;DHT22;9284;52.298;21.164;2023-04-24T10:56:04;26.20;99.90
18317;DHT22;9284;52.298;21.164;2023-04-24T10:58:37;26.30;99.90
18317;DHT22;9284;52.298;21.164;2023-04-24T11:01:08;26.20;99.90
18317;DHT22;9284;52.298;21.164;2023-04-24T11:03:37;26.10;99.90
18317;DHT22;9284;52.298;21.164;2023-04-24T11:06:09;26.30;98.50
18317;DHT22;9284;52.298;21.164;2023-04-24T11:08:38;26.20;98.60
18317;DHT22;9284;52.298;21.164;2023-04-24T11:11:11;26.00;97.00
18317;DHT22;9284;52.298;21.164;2023-04-24T11:14:03;25.90;97.70
18317;DHT22;9284;52.298;21.164;2023-04-24T11:16:37;25.20;95.80
18317;DHT22;9284;52.298;21.164;2023-04-24T11:19:08;25.20;97.00
18317;DHT22;9284;52.298;21.164;2023-04-24T11:21:41;25.60;97.80
18317;DHT22;9284;52.298;21.164;2023-04-24T11:24:29;25.80;99.90
18317;DHT22;9284;52.298;21.164;2023-04-24T11:27:04;26.50;99.00
18317;DHT22;9284;52.298;21.164;2023-04-24T11:29:41;26.40;99.30
18317;DHT22;9284;52.298;21.164;2023-04-24T11:32:28;26.10;97.80
18317;DHT22;9284;52.298;21.164;2023-04-24T11:34:59;25.80;96.20
18317;DHT22;9284;52.298;21.164;2023-04-24T11:37:32;25.00;98.00
18317;DHT22;9284;52.298;21.164;2023-04-24T11:40:02;24.40;98.00
18317;DHT22;9284;52.298;21.164;2023-04-24T11:42:34;23.90;96.30
18317;DHT22;9284;52.298;21.164;2023-04-24T11:45:07;23.70;97.30
18317;DHT22;9284;52.298;21.164;2023-04-24T11:47:38;23.70;98.00
18317;DHT22;9284;52.298;21.164;2023-04-24T11:50:09;23.70;98.70
18317;DHT22;9284;52.298;21.164;2023-04-24T11:52:39;23.80;99.90
18317;DHT22;9284;52.298;21.164;2023-04-24T11:55:09;23.90;95.60
18317;DHT22;9284;52.298;21.164;2023-04-24T11:57:54;23.90;95.20
18317;DHT22;9284;52.298;21.164;2023-04-24T12:00:25;23.70;93.30
18317;DHT22;9284;52.298;21.164;2023-04-24T12:03:05;23.60;92.80
18317;DHT22;9284;52.298;21.164;2023-04-24T12:05:34;23.50;94.00
18317;DHT22;9284;52.298;21.164;2023-04-24T12:08:05;23.30;93.00
18317;DHT22;9284;52.298;21.164;2023-04-24T12:10:34;22.90;93.20
18317;DHT22;9284;52.298;21.164;2023-04-24T12:13:02;22.80;94.00
18317;DHT22;9284;52.298;21.164;2023-04-24T12:15:31;22.70;93.50
18317;DHT22;9284;52.298;21.164;2023-04-24T12:17:59;22.60;93.60
18317;DHT22;9284;52.298;21.164;2023-04-24T12:20:30;22.40;93.90
18317;DHT22;9284;52.298;21.164;2023-04-24T12:23:00;22.40;92.90
18317;DHT22;9284;52.298;21.164;2023-04-24T12:25:30;22.30;92.10
18317;DHT22;9284;52.298;21.164;2023-04-24T12:28:10;22.30;92.50
18317;DHT22;9284;52.298;21.164;2023-04-24T12:30:41;22.20;92.10
18317;DHT22;9284;52.298;21.164;2023-04-24T12:33:11;22.20;91.90
18317;DHT22;9284;52.298;21.164;2023-04-24T12:35:41;22.10;92.30
18317;DHT22;9284;52.298;21.164;2023-04-24T12:38:10;22.10;91.30
18317;DHT22;9284;52.298;21.164;2023-04-24T12:40:39;22.20;91.80
18317;DHT22;9284;52.298;21.164;2023-04-24T12:43:15;22.20;91.60
18317;DHT22;9284;52.298;21.164;2023-04-24T12:45:44;22.30;92.20
18317;DHT22;9284;52.298;21.164;2023-04-24T12:48:12;22.60;99.90
18317;DHT22;9284;52.298;21.164;2023-04-24T12:50:43;23.10;93.60
18317;DHT22;9284;52.298;21.164;2023-04-24T12:53:13;23.50;93.10
18317;DHT22;9284;52.298;21.164;2023-04-24T12:55:42;23.80;92.60
18317;DHT22;9284;52.298;21.164;2023-04-24T12:58:11;24.00;93.30
18317;DHT22;9284;52.298;21.164;2023-04-24T13:00:39;24.20;93.20
18317;DHT22;9284;52.298;21.164;2023-04-24T13:03:10;24.40;92.80
18317;DHT22;9284;52.298;21.164;2023-04-24T13:05:39;24.60;91.60
18317;DHT22;9284;52.298;21.164;2023-04-24T13:08:09;24.60;91.50
18317;DHT22;9284;52.298;21.164;2023-04-24T13:10:39;24.40;93.00
18317;DHT22;9284;52.298;21.164;2023-04-24T13:13:08;24.10;93.80
18317;DHT22;9284;52.298;21.164;2023-04-24T13:15:38;23.80;94.10
18317;DHT22;9284;52.298;21.164;2023-04-24T13:18:07;23.50;94.70
18317;DHT22;9284;52.298;21.164;2023-04-24T13:20:35;22.60;93.70
18317;DHT22;9284;52.298;21.164;2023-04-24T13:23:03;22.20;93.50
18317;DHT22;9284;52.298;21.164;2023-04-24T13:25:35;22.00;93.50
18317;DHT22;9284;52.298;21.164;2023-04-24T13:28:04;21.80;99.90
18317;DHT22;9284;52.298;21.164;2023-04-24T13:30:32;21.50;97.20
18317;DHT22;9284;52.298;21.164;2023-04-24T13:33:02;21.00;94.20
18317;DHT22;9284;52.298;21.164;2023-04-24T13:35:30;21.00;94.90
18317;DHT22;9284;52.298;21.164;2023-04-24T13:37:59;21.10;94.80
18317;DHT22;9284;52.298;21.164;2023-04-24T13:40:28;21.10;99.90
18317;DHT22;9284;52.298;21.164;2023-04-24T13:42:57;20.90;94.00
18317;DHT22;9284;52.298;21.164;2023-04-24T13:45:26;20.80;93.90
18317;DHT22;9284;52.298;21.164;2023-04-24T13:47:54;20.80;94.60
18317;DHT22;9284;52.298;21.164;2023-04-24T13:50:23;20.50;95.40
18317;DHT22;9284;52.298;21.164;2023-04-24T13:52:52;20.10;98.90
18317;DHT22;9284;52.298;21.164;2023-04-24T13:55:21;18.90;99.90
18317;DHT22;9284;52.298;21.164;2023-04-24T13:57:49;17.80;99.90
18317;DHT22;9284;52.298;21.164;2023-04-24T14:00:20;17.20;99.90
18317;DHT22;9284;52.298;21.164;2023-04-24T14:02:49;16.80;99.90
18317;DHT22;9284;52.298;21.164;2023-04-24T14:05:18;16.60;99.90
18317;DHT22;9284;52.298;21.164;2023-04-24T14:07:47;16.60;99.90
18317;DHT22;9284;52.298;21.164;2023-04-24T14:10:16;16.60;99.90
18317;DHT22;9284;52.298;21.164;2023-04-24T14:12:44;16.80;99.90
18317;DHT22;9284;52.298;21.164;2023-04-24T14:15:12;16.70;99.90
18317;DHT22;9284;52.298;21.164;2023-04-24T14:17:42;16.80;99.90
18317;DHT22;9284;52.298;21.164;2023-04-24T14:20:12;16.90;99.90
18317;DHT22;9284;52.298;21.164;2023-04-24T14:22:40;17.10;99.90
18317;DHT22;9284;52.298;21.164;2023-04-24T14:25:09;17.40;99.90
18317;DHT22;9284;52.298;21.164;2023-04-24T14:27:37;17.50;99.90
18317;DHT22;9284;52.298;21.164;2023-04-24T14:30:07;17.80;99.90
18317;DHT22;9284;52.298;21.164;2023-04-24T14:32:37;18.00;99.90
18317;DHT22;9284;52.298;21.164;2023-04-24T14:35:08;18.30;99.90
18317;DHT22;9284;52.298;21.164;2023-04-24T14:37:36;18.60;99.90
18317;DHT22;9284;52.298;21.164;2023-04-24T14:40:09;18.80;99.90
18317;DHT22;9284;52.298;21.164;2023-04-24T14:42:57;19.10;99.90
18317;DHT22;9284;52.298;21.164;2023-04-24T14:45:25;19.40;99.90
18317;DHT22;9284;52.298;21.164;2023-04-24T14:47:55;19.60;99.90
18317;DHT22;9284;52.298;21.164;2023-04-24T14:50:26;19.80;99.90
18317;DHT22;9284;52.298;21.164;2023-04-24T14:52:55;19.90;99.90
18317;DHT22;9284;52.298;21.164;2023-04-24T14:55:24;20.10;99.90
18317;DHT22;9284;52.298;21.164;2023-04-24T14:57:53;20.30;99.90
18317;DHT22;9284;52.298;21.164;2023-04-24T15:00:22;20.50;99.90
18317;DHT22;9284;52.298;21.164;2023-04-24T15:02:51;20.60;99.90
18317;DHT22;9284;52.298;21.164;2023-04-24T15:05:19;20.70;99.90
18317;DHT22;9284;52.298;21.164;2023-04-24T15:07:51;20.90;99.90
18317;DHT22;9284;52.298;21.164;2023-04-24T15:10:20;20.70;99.90
18317;DHT22;9284;52.298;21.164;2023-04-24T15:12:49;20.70;99.90
18317;DHT22;9284;52.298;21.164;2023-04-24T15:15:18;20.80;99.90
18317;DHT22;9284;52.298;21.164;2023-04-24T15:17:46;20.80;99.90
18317;DHT22;9284;52.298;21.164;2023-04-24T15:20:14;20.70;99.90
18317;DHT22;9284;52.298;21.164;2023-04-24T15:22:43;20.70;99.90
18317;DHT22;9284;52.298;21.164;2023-04-24T15:25:12;20.70;99.30
18317;DHT22;9284;52.298;21.164;2023-04-24T15:27:41;20.60;99.60
18317;DHT22;9284;52.298;21.164;2023-04-24T15:30:11;20.60;98.70
18317;DHT22;9284;52.298;21.164;2023-04-24T15:32:39;20.60;99.10
18317;DHT22;9284;52.298;21.164;2023-04-24T15:35:09;20.60;98.10
18317;DHT22;9284;52.298;21.164;2023-04-24T15:37:38;20.70;96.50
18317;DHT22;9284;52.298;21.164;2023-04-24T15:40:08;20.70;96.20
18317;DHT22;9284;52.298;21.164;2023-04-24T15:42:40;20.80;96.60
18317;DHT22;9284;52.298;21.164;2023-04-24T15:45:09;20.70;95.30
18317;DHT22;9284;52.298;21.164;2023-04-24T15:47:38;20.70;94.90
18317;DHT22;9284;52.298;21.164;2023-04-24T15:50:07;20.70;92.80
18317;DHT22;9284;52.298;21.164;2023-04-24T15:52:40;20.70;91.00
18317;DHT22;9284;52.298;21.164;2023-04-24T15:55:10;20.70;92.30
18317;DHT22;9284;52.298;21.164;2023-04-24T15:57:40;20.70;92.60